TimePST,TemperatureF,Dew PointF,Humidity,Sea Level PressureIn,VisibilityMPH,Wind Direction,Wind SpeedMPH,Gust SpeedMPH,PrecipitationIn,Events,Conditions,WindDirDegrees,DateUTC
12:30 AM,41.0,35.6,81,30.09,10.0,SSE,4.6,-,N/A,,Overcast,160,2013-02-18 08:30:00
12:53 AM,41.0,37.0,86,30.12,10.0,SSE,3.5,-,N/A,,Overcast,160,2013-02-18 08:53:00
1:53 AM,41.0,36.0,82,30.09,10.0,Calm,Calm,-,N/A,,Overcast,0,2013-02-18 09:53:00
2:14 AM,41.0,35.6,81,30.06,10.0,Calm,Calm,-,N/A,,Overcast,0,2013-02-18 10:14:00
2:53 AM,41.0,35.1,79,30.08,10.0,Calm,Calm,-,N/A,,Overcast,0,2013-02-18 10:53:00
3:53 AM,41.0,36.0,82,30.06,10.0,Calm,Calm,-,N/A,,Overcast,0,2013-02-18 11:53:00
4:53 AM,39.9,35.1,83,30.04,10.0,SE,3.5,-,N/A,,Mostly Cloudy,140,2013-02-18 12:53:00
5:53 AM,39.9,35.1,83,30.03,10.0,SSE,4.6,-,N/A,,Overcast,160,2013-02-18 13:53:00
6:53 AM,39.9,35.1,83,30.01,10.0,SSE,5.8,-,N/A,,Overcast,160,2013-02-18 14:53:00
7:53 AM,39.9,36.0,86,30.02,10.0,South,4.6,-,N/A,,Overcast,190,2013-02-18 15:53:00
8:53 AM,39.9,36.0,86,30.01,10.0,SSE,8.1,-,N/A,,Overcast,150,2013-02-18 16:53:00
9:30 AM,41.0,35.6,81,29.97,10.0,ESE,9.2,-,N/A,,Overcast,120,2013-02-18 17:30:00
9:53 AM,41.0,36.0,82,30.00,10.0,South,5.8,-,N/A,,Overcast,190,2013-02-18 17:53:00
10:04 AM,41.0,35.6,81,29.98,10.0,SSW,4.6,-,N/A,,Overcast,200,2013-02-18 18:04:00
10:53 AM,44.1,36.0,73,29.99,10.0,SSW,6.9,-,N/A,,Overcast,200,2013-02-18 18:53:00
11:31 AM,42.8,35.6,76,29.95,10.0,SSW,6.9,-,N/A,,Overcast,200,2013-02-18 19:31:00
11:53 AM,44.1,35.1,71,29.97,10.0,South,6.9,-,N/A,,Overcast,180,2013-02-18 19:53:00
12:53 PM,45.0,34.0,65,29.95,10.0,SW,5.8,-,N/A,,Overcast,220,2013-02-18 20:53:00
1:53 PM,46.0,34.0,63,29.94,10.0,South,5.8,-,N/A,,Mostly Cloudy,190,2013-02-18 21:53:00
2:38 PM,44.6,37.4,76,29.90,7.0,SSW,6.9,-,0.00,Rain,Light Rain,210,2013-02-18 22:38:00
2:53 PM,44.6,37.4,76,29.89,10.0,South,4.6,-,N/A,Rain,Light Rain,170,2013-02-18 22:53:00
3:09 PM,44.6,37.4,76,29.89,10.0,South,3.5,-,0.00,,Overcast,190,2013-02-18 23:09:00
3:53 PM,46.0,36.0,68,29.90,10.0,South,5.8,-,0.00,,Mostly Cloudy,180,2013-02-18 23:53:00
4:53 PM,46.0,32.0,58,29.87,10.0,SSW,8.1,-,N/A,,Overcast,200,2013-02-19 00:53:00
5:53 PM,44.1,33.1,65,29.86,10.0,South,3.5,-,N/A,,Mostly Cloudy,190,2013-02-19 01:53:00
6:53 PM,45.0,34.0,65,29.84,10.0,Calm,Calm,-,0.00,Rain,Light Rain,0,2013-02-19 02:53:00
7:53 PM,44.1,34.0,68,29.82,10.0,SSE,3.5,-,0.00,Rain,Light Rain,160,2013-02-19 03:53:00
8:53 PM,43.0,34.0,71,29.81,10.0,SE,6.9,-,0.00,,Mostly Cloudy,130,2013-02-19 04:53:00
9:53 PM,43.0,33.1,68,29.80,10.0,ESE,4.6,-,N/A,,Overcast,110,2013-02-19 05:53:00
10:53 PM,41.0,34.0,76,29.80,10.0,SSW,3.5,-,N/A,,Overcast,210,2013-02-19 06:53:00
11:53 PM,42.1,35.1,76,29.78,10.0,Calm,Calm,-,0.00,,Mostly Cloudy,0,2013-02-19 07:53:00